createdAt,value
2019-03-29T00:04:47.024Z,62.26
2019-03-29T00:09:44.003Z,62.37
2019-03-29T00:14:42.040Z,62.08
2019-03-29T00:19:39.123Z,62.94
2019-03-29T00:24:37.137Z,62.70
2019-03-29T00:29:34.238Z,62.92
2019-03-29T00:34:31.336Z,62.72
2019-03-29T00:39:28.436Z,62.83
2019-03-29T00:44:26.243Z,62.82
2019-03-29T00:49:24.018Z,62.58
2019-03-29T00:54:21.120Z,62.95
2019-03-29T00:59:18.050Z,63.13
2019-03-29T01:04:15.641Z,63.16
2019-03-29T01:09:12.629Z,62.97
2019-03-29T01:14:09.786Z,63.12
2019-03-29T01:19:06.767Z,62.86
2019-03-29T01:24:04.736Z,63.02
2019-03-29T01:29:01.691Z,62.97
2019-03-29T01:33:59.233Z,63.32
2019-03-29T01:38:56.243Z,63.20
2019-03-29T01:43:55.130Z,63.52
2019-03-29T01:48:52.097Z,63.44
2019-03-29T01:53:49.167Z,63.26
2019-03-29T01:58:46.121Z,63.19
2019-03-29T02:03:43.271Z,63.51
2019-03-29T02:08:40.326Z,63.13
2019-03-29T02:13:37.323Z,62.99
2019-03-29T02:18:34.256Z,62.91
2019-03-29T02:23:31.261Z,62.57
2019-03-29T02:28:28.204Z,62.78
2019-03-29T02:33:25.293Z,62.68
2019-03-29T02:38:24.108Z,62.84
2019-03-29T02:43:21.225Z,62.70
2019-03-29T02:48:18.195Z,63.04
2019-03-29T02:53:15.326Z,63.16
2019-03-29T02:58:12.361Z,63.02
2019-03-29T03:03:09.422Z,62.77
2019-03-29T03:08:06.469Z,63.12
2019-03-29T03:13:03.585Z,63.54
2019-03-29T03:18:00.644Z,63.46
2019-03-29T03:22:57.750Z,62.52
2019-03-29T03:27:54.730Z,62.06
2019-03-29T03:32:51.848Z,61.87
2019-03-29T03:37:48.878Z,61.94
2019-03-29T03:42:46.330Z,62.13
2019-03-29T03:47:45.677Z,61.75
2019-03-29T03:52:42.814Z,62.23
2019-03-29T03:57:40.009Z,61.93
2019-03-29T04:02:37.103Z,62.05
2019-03-29T04:07:34.095Z,62.53
2019-03-29T04:12:31.134Z,62.49
2019-03-29T04:17:32.006Z,62.43
2019-03-29T04:22:30.440Z,62.45
2019-03-29T04:27:29.234Z,63.24
2019-03-29T04:32:26.411Z,63.18
2019-03-29T04:37:23.383Z,63.12
2019-03-29T04:42:20.513Z,63.44
2019-03-29T04:47:18.855Z,63.35
2019-03-29T04:52:18.687Z,63.05
2019-03-29T04:57:15.766Z,63.07
2019-03-29T05:02:12.961Z,62.90
2019-03-29T05:07:10.023Z,62.87
2019-03-29T05:12:07.130Z,63.00
2019-03-29T05:17:06.303Z,62.86
2019-03-29T05:22:03.426Z,62.73
2019-03-29T05:27:00.411Z,62.45
2019-03-29T05:31:57.420Z,62.51
2019-03-29T05:36:54.496Z,62.30
2019-03-29T05:41:51.607Z,62.47
2019-03-29T05:46:48.571Z,62.24
2019-03-29T05:51:46.627Z,62.45
2019-03-29T05:56:43.619Z,62.35
2019-03-29T06:01:40.974Z,61.86
2019-03-29T06:06:38.046Z,61.41
2019-03-29T06:11:35.793Z,61.40
2019-03-29T06:16:38.959Z,60.98
2019-03-29T06:21:32.998Z,60.57
2019-03-29T06:26:30.081Z,61.34
2019-03-29T06:31:29.169Z,60.54
2019-03-29T06:36:26.897Z,60.69
2019-03-29T06:41:24.086Z,61.07
2019-03-29T06:46:22.947Z,60.70
2019-03-29T06:51:20.033Z,60.60
2019-03-29T06:56:17.157Z,60.01
2019-03-29T07:01:14.401Z,59.80
2019-03-29T07:06:11.522Z,58.34
2019-03-29T07:11:17.347Z,60.08
2019-03-29T07:16:07.850Z,58.26
2019-03-29T07:21:04.956Z,58.44
2019-03-29T07:26:06.049Z,58.58
2019-03-29T07:31:04.768Z,58.20
2019-03-29T07:36:01.698Z,57.84
2019-03-29T07:41:02.140Z,56.47
2019-03-29T07:45:59.168Z,57.20
2019-03-29T07:50:57.587Z,56.49
2019-03-29T07:55:54.846Z,56.97
2019-03-29T08:00:54.778Z,56.16
2019-03-29T08:05:53.064Z,55.20
2019-03-29T08:10:53.482Z,55.56
2019-03-29T08:15:49.302Z,55.17
2019-03-29T08:20:46.407Z,52.53
2019-03-29T08:25:43.491Z,51.63
2019-03-29T08:30:40.663Z,51.18
2019-03-29T08:35:37.642Z,50.54
2019-03-29T08:40:36.147Z,51.24
2019-03-29T08:45:36.087Z,48.69
2019-03-29T08:50:33.269Z,45.52
2019-03-29T08:55:44.743Z,44.42
2019-03-29T09:00:30.554Z,42.64
2019-03-29T09:05:27.862Z,43.82
2019-03-29T09:10:26.074Z,40.80
2019-03-29T09:15:27.870Z,42.02
2019-03-29T09:20:26.772Z,39.52
2019-03-29T09:25:25.065Z,38.15
2019-03-29T09:30:22.172Z,39.86
2019-03-29T09:35:23.935Z,40.06
2019-03-29T09:40:21.892Z,40.05
2019-03-29T09:45:18.992Z,39.95
2019-03-29T09:50:18.734Z,40.29
2019-03-29T09:55:18.841Z,39.72
2019-03-29T10:00:21.010Z,40.04
2019-03-29T10:05:13.949Z,38.75
2019-03-29T10:10:12.179Z,38.83
2019-03-29T10:15:09.488Z,40.29
2019-03-29T10:20:07.410Z,40.66
2019-03-29T10:25:18.604Z,41.83
2019-03-29T10:30:09.361Z,42.30
2019-03-29T10:35:06.734Z,42.17
2019-03-29T10:40:09.031Z,42.25
2019-03-29T10:45:06.209Z,44.05
2019-03-29T10:50:05.264Z,44.54
2019-03-29T10:55:03.802Z,43.05
2019-03-29T11:00:00.946Z,42.94
2019-03-29T11:04:58.224Z,42.61
2019-03-29T11:09:55.388Z,41.76
2019-03-29T11:14:53.627Z,41.81
2019-03-29T11:19:52.066Z,42.18
2019-03-29T11:24:49.101Z,41.49
2019-03-29T11:29:46.113Z,40.98
2019-03-29T11:34:43.221Z,40.70
2019-03-29T11:39:40.768Z,40.42
2019-03-29T11:44:37.830Z,38.98
2019-03-29T11:49:34.965Z,39.55
2019-03-29T11:54:31.992Z,41.39
2019-03-29T11:59:29.242Z,38.71
2019-03-29T12:04:26.223Z,39.60
2019-03-29T12:09:23.284Z,40.69
2019-03-29T12:14:22.285Z,39.65
2019-03-29T12:19:20.234Z,40.14
2019-03-29T12:24:19.703Z,39.46
2019-03-29T12:29:16.855Z,38.96
2019-03-29T12:34:13.968Z,37.87
2019-03-29T12:39:13.135Z,35.63
2019-03-29T12:44:10.170Z,34.99
2019-03-29T12:49:09.089Z,35.72
2019-03-29T12:54:07.694Z,33.88
2019-03-29T12:59:07.211Z,36.17
2019-03-29T13:04:04.197Z,34.40
2019-03-29T13:09:01.464Z,33.90
2019-03-29T13:14:09.599Z,33.63
2019-03-29T13:18:57.485Z,35.30
2019-03-29T13:23:56.593Z,34.24
2019-03-29T13:28:53.722Z,33.00
2019-03-29T13:33:51.787Z,33.78
2019-03-29T13:38:51.085Z,33.87
2019-03-29T13:43:48.119Z,34.94
2019-03-29T13:48:45.210Z,35.90
2019-03-29T13:53:42.367Z,34.35
2019-03-29T13:58:40.439Z,34.75
2019-03-29T14:03:37.443Z,34.41
2019-03-29T14:08:34.587Z,34.50
2019-03-29T14:13:31.733Z,33.63
2019-03-29T14:18:31.737Z,33.88
2019-03-29T14:23:31.542Z,33.76
2019-03-29T14:28:28.743Z,34.49
2019-03-29T14:33:25.918Z,33.91
2019-03-29T14:38:25.074Z,33.00
2019-03-29T14:43:23.835Z,35.46
2019-03-29T14:48:23.680Z,35.02
2019-03-29T14:53:22.990Z,34.79
2019-03-29T14:58:20.697Z,35.46
2019-03-29T15:03:22.996Z,35.76
2019-03-29T15:08:27.370Z,35.70
2019-03-29T15:13:33.226Z,36.36
2019-03-29T15:18:46.186Z,36.73
2019-03-29T15:23:53.102Z,36.11
2019-03-29T15:29:00.978Z,36.54
2019-03-29T15:34:03.818Z,37.04
2019-03-29T15:39:03.917Z,36.79
2019-03-29T15:44:08.188Z,37.63
2019-03-29T15:49:08.501Z,37.97
2019-03-29T15:54:05.634Z,38.08
2019-03-29T15:59:10.455Z,38.87
2019-03-29T16:04:07.570Z,39.19
2019-03-29T16:09:05.531Z,39.34
2019-03-29T16:14:02.752Z,40.17
2019-03-29T16:19:01.510Z,40.10
2019-03-29T16:23:58.687Z,40.63
2019-03-29T16:28:56.731Z,40.49
2019-03-29T16:33:53.870Z,41.13
2019-03-29T16:38:51.141Z,40.72
2019-03-29T16:43:48.319Z,41.54
2019-03-29T16:48:46.049Z,43.77
2019-03-29T16:53:43.086Z,43.80
2019-03-29T16:58:42.041Z,44.34
2019-03-29T17:03:39.130Z,44.48
2019-03-29T17:08:36.412Z,46.40
2019-03-29T17:13:33.515Z,45.52
2019-03-29T17:18:32.191Z,47.68
2019-03-29T17:23:29.254Z,47.32
2019-03-29T17:28:26.359Z,48.37
2019-03-29T17:33:23.898Z,47.99
2019-03-29T17:38:21.124Z,49.62
2019-03-29T17:43:18.160Z,49.86
2019-03-29T17:48:15.369Z,50.28
2019-03-29T17:53:12.460Z,50.69
2019-03-29T17:58:10.032Z,50.87
2019-03-29T18:03:07.067Z,50.93
2019-03-29T18:08:04.214Z,52.41
2019-03-29T18:13:01.257Z,51.34
2019-03-29T18:17:58.408Z,51.55
2019-03-29T18:22:55.533Z,53.03
2019-03-29T18:27:52.671Z,52.35
2019-03-29T18:32:49.724Z,53.72
2019-03-29T18:37:47.446Z,53.40
2019-03-29T18:42:44.662Z,53.97
2019-03-29T18:47:41.924Z,53.89
2019-03-29T18:52:42.821Z,55.06
2019-03-29T18:57:40.076Z,55.78
2019-03-29T19:02:37.746Z,55.15
2019-03-29T19:07:36.091Z,54.78
2019-03-29T19:12:33.482Z,56.27
2019-03-29T19:17:30.691Z,56.56
2019-03-29T19:22:27.913Z,54.83
2019-03-29T19:27:25.186Z,55.56
2019-03-29T19:32:22.858Z,56.21
2019-03-29T19:37:20.002Z,56.56
2019-03-29T19:42:17.859Z,57.46
2019-03-29T19:47:14.939Z,56.76
2019-03-29T19:52:12.002Z,56.46
2019-03-29T19:57:09.626Z,56.12
2019-03-29T20:02:06.666Z,57.19
2019-03-29T20:07:04.469Z,58.00
2019-03-29T20:12:01.694Z,57.78
2019-03-29T20:16:59.420Z,58.52
2019-03-29T20:21:56.659Z,58.32
2019-03-29T20:26:53.737Z,56.85
2019-03-29T20:31:50.889Z,59.14
2019-03-29T20:36:48.376Z,58.54
2019-03-29T20:41:45.714Z,58.62
2019-03-29T20:46:43.701Z,59.29
2019-03-29T20:51:40.741Z,59.66
2019-03-29T20:56:38.056Z,59.00
2019-03-29T21:01:35.479Z,58.38
2019-03-29T21:06:32.762Z,58.97
2019-03-29T21:11:29.831Z,58.66
2019-03-29T21:16:33.552Z,58.93
2019-03-29T21:21:30.688Z,59.18
2019-03-29T21:26:28.227Z,58.94
2019-03-29T21:31:25.444Z,57.32
2019-03-29T21:36:22.564Z,58.75
2019-03-29T21:41:19.629Z,57.95
2019-03-29T21:46:16.744Z,57.82
2019-03-29T21:51:14.926Z,58.20
2019-03-29T21:56:12.091Z,56.82
2019-03-29T22:01:09.152Z,57.61
2019-03-29T22:06:06.389Z,58.32
2019-03-29T22:11:03.448Z,58.25
2019-03-29T22:16:00.525Z,58.69
2019-03-29T22:20:57.511Z,58.81
2019-03-29T22:25:57.201Z,56.99
2019-03-29T22:30:54.358Z,56.54
2019-03-29T22:35:51.470Z,57.08
2019-03-29T22:40:48.510Z,57.93
2019-03-29T22:45:46.512Z,59.25
2019-03-29T22:50:43.482Z,58.91
2019-03-29T22:55:41.414Z,59.82
2019-03-29T23:00:43.640Z,58.92
2019-03-29T23:05:40.761Z,59.12
2019-03-29T23:10:37.816Z,59.93
2019-03-29T23:15:34.899Z,60.63
2019-03-29T23:20:34.758Z,60.54
2019-03-29T23:25:31.900Z,59.02
2019-03-29T23:30:30.402Z,59.34
2019-03-29T23:35:27.445Z,58.95
2019-03-29T23:40:26.430Z,59.62
2019-03-29T23:45:23.487Z,58.95
2019-03-29T23:50:20.627Z,59.74
2019-03-29T23:55:17.671Z,61.23
